Time;durP1;ratioP1;P1;durP2;ratioP2;P2;SDS_P1;SDS_P2;PMS_P1;PMS_P2;Temp;Humidity;BMP_temperature;BMP_pressure;BME280_temperature;BME280_humidity;BME280_pressure;Samples;Min_cycle;Max_cycle;Signal;HPM_P1;HPM_P2
2022/02/27 00:00:12;;;;;;;0.90;0.60;;;-3.80;1.40;;;-3.18;100.00;96636.64;646125;212;31763;-75
2022/02/27 00:02:54;;;;;;;6.47;0.60;;;-3.60;1.40;;;-3.07;100.00;96640.98;646861;216;31885;-75
2022/02/27 00:05:41;;;;;;;0.90;0.90;;;-3.50;1.40;;;-3.07;100.00;96644.58;647163;216;31540;-78
2022/02/27 00:08:32;;;;;;;1.20;0.70;;;-3.60;1.40;;;-2.95;100.00;96640.69;634967;216;31736;-75
2022/02/27 00:11:14;;;;;;;5.00;0.70;;;-3.40;1.40;;;-2.87;100.00;96636.89;647010;216;31522;-75
2022/02/27 00:13:59;;;;;;;3.70;0.60;;;-3.30;1.40;;;-2.89;100.00;96638.44;647749;212;32418;-76
2022/02/27 00:16:46;;;;;;;0.40;0.40;;;-3.30;1.40;;;-2.92;100.00;96643.25;645292;212;31768;-75
2022/02/27 00:19:28;;;;;;;0.40;0.40;;;-3.50;1.40;;;-2.83;100.00;96637.23;647700;216;31601;-73
2022/02/27 00:22:10;;;;;;;1.30;1.10;;;-3.50;1.40;;;-3.01;100.00;96635.59;647231;216;31565;-75
2022/02/27 00:24:55;;;;;;;0.70;0.60;;;-3.70;1.40;;;-3.10;100.00;96642.13;647288;212;31527;-77
2022/02/27 00:27:42;;;;;;;3.10;0.80;;;-3.70;1.40;;;-3.26;100.00;96635.33;642133;216;31544;-73
2022/02/27 00:30:24;;;;;;;2.00;0.70;;;-3.90;1.40;;;-3.23;100.00;96636.14;647102;216;31517;-73
2022/02/27 00:35:51;;;;;;;0.80;0.70;;;-4.00;1.40;;;-3.49;100.00;96643.17;647253;216;42474;-72
2022/02/27 00:38:33;;;;;;;0.50;0.50;;;-4.00;1.40;;;-3.61;100.00;96643.89;645662;212;32348;-75
2022/02/27 00:41:21;;;;;;;0.40;0.40;;;-4.10;1.40;;;-3.65;100.00;96642.38;647484;212;32071;-77
2022/02/27 00:44:09;;;;;;;0.90;0.65;;;-4.10;1.40;;;-3.68;100.00;96641.59;647294;216;32738;-72
2022/02/27 00:46:51;;;;;;;0.60;0.60;;;-4.20;1.40;;;-3.70;100.00;96646.66;646923;216;31566;-73
2022/02/27 00:49:34;;;;;;;1.77;0.93;;;-4.20;1.40;;;-3.73;100.00;96643.61;645367;216;31493;-75
2022/02/27 00:52:22;;;;;;;2.50;1.10;;;-4.20;1.40;;;-3.67;100.00;96646.12;647808;216;31654;-73
2022/02/27 00:55:04;;;;;;;3.62;1.10;;;-4.00;1.40;;;-3.47;100.00;96642.08;647604;216;31542;-77
2022/02/27 00:57:52;;;;;;;0.60;0.60;;;-3.80;1.40;;;-3.25;100.00;96640.11;618688;226;31996;-73
2022/02/27 01:00:34;;;;;;;2.00;0.70;;;-3.70;1.40;;;-3.08;100.00;96637.89;647548;216;31533;-73
2022/02/27 01:03:16;;;;;;;0.60;0.60;;;-3.50;1.40;;;-2.88;100.00;96637.75;645821;212;31723;-74
2022/02/27 01:05:57;;;;;;;0.60;0.50;;;-3.30;1.40;;;-2.72;100.00;96633.45;647893;216;31514;-75
2022/02/27 01:08:42;;;;;;;1.35;1.25;;;-3.20;1.40;;;-2.40;100.00;96638.89;646931;216;31486;-75
2022/02/27 01:11:23;;;;;;;7.00;0.73;;;-2.80;1.40;;;-2.14;100.00;96637.06;646783;216;32123;-73
2022/02/27 01:14:05;;;;;;;1.80;0.75;;;-2.70;1.40;;;-2.40;100.00;96638.16;646081;216;32605;-73
2022/02/27 01:16:47;;;;;;;0.50;0.50;;;-3.00;1.40;;;-2.22;100.00;96642.09;647499;216;32146;-76
2022/02/27 01:19:29;;;;;;;0.90;0.60;;;-2.90;1.40;;;-1.91;100.00;96625.80;617726;226;31871;-73
2022/02/27 01:22:13;;;;;;;1.10;0.60;;;-2.70;1.40;;;-1.95;100.00;96623.59;647050;216;31536;-73
2022/02/27 01:24:55;;;;;;;1.30;0.50;;;-2.70;1.40;;;-1.82;100.00;96627.92;647033;216;31552;-73
2022/02/27 01:27:39;;;;;;;0.60;0.60;;;-2.60;1.40;;;-1.88;100.00;96627.91;648001;212;31554;-77
2022/02/27 01:30:26;;;;;;;0.73;0.73;;;-2.60;1.40;;;-1.87;100.00;96625.84;647016;216;31549;-73
2022/02/27 01:35:51;;;;;;;0.93;0.80;;;-2.60;1.40;;;-1.86;100.00;96621.92;646786;216;32825;-73
2022/02/27 01:38:33;;;;;;;1.80;1.70;;;-2.70;1.40;;;-1.78;100.00;96615.38;646715;216;31722;-73
2022/02/27 01:41:21;;;;;;;2.78;1.10;;;-2.80;1.40;;;-2.11;100.00;96607.98;646952;216;31567;-78
2022/02/27 01:44:08;;;;;;;1.00;0.90;;;-2.90;1.40;;;-2.31;100.00;96615.42;618577;222;31902;-73
2022/02/27 01:46:59;;;;;;;1.10;1.00;;;-3.00;1.40;;;-2.49;100.00;96610.23;646465;216;31559;-73
2022/02/27 01:49:45;;;;;;;1.23;0.82;;;-3.10;1.40;;;-2.59;100.00;96617.33;618646;226;31946;-77
2022/02/27 01:52:24;;;;;;;1.30;1.10;;;-3.30;1.40;;;-2.64;100.00;96613.67;647967;212;42148;-76
2022/02/27 01:55:06;;;;;;;0.88;0.85;;;-3.40;1.40;;;-2.69;100.00;96615.70;647565;212;31519;-78
2022/02/27 01:57:49;;;;;;;1.00;0.90;;;-3.30;1.40;;;-2.63;100.00;96617.69;631709;217;31660;-78
2022/02/27 02:00:36;;;;;;;2.10;1.12;;;-3.20;1.40;;;-2.50;100.00;96615.88;646253;212;31587;-73
2022/02/27 02:03:18;;;;;;;1.50;0.80;;;-3.10;1.40;;;-2.41;100.00;96616.74;646973;216;31553;-75
2022/02/27 02:06:00;;;;;;;3.20;1.50;;;-3.10;1.40;;;-2.41;100.00;96610.28;646026;216;31559;-73
2022/02/27 02:08:44;;;;;;;1.85;1.30;;;-3.10;1.40;;;-2.48;100.00;96610.34;648203;212;31572;-77
2022/02/27 02:11:32;;;;;;;1.65;1.08;;;-3.20;1.40;;;-2.40;100.00;96609.36;645879;216;31562;-75
2022/02/27 02:14:16;;;;;;;2.60;1.50;;;-3.00;1.40;;;-2.51;100.00;96600.00;647932;212;31468;-74
2022/02/27 02:17:04;;;;;;;0.70;0.60;;;-3.20;1.40;;;-2.63;100.00;96595.84;646972;212;32116;-77
2022/02/27 02:19:54;;;;;;;1.17;1.08;;;-3.30;1.40;;;-2.71;100.00;96594.97;630161;222;31795;-74
2022/02/27 02:22:38;;;;;;;1.30;1.20;;;-3.40;1.40;;;-2.76;100.00;96594.27;620597;222;32009;-76
2022/02/27 02:25:21;;;;;;;0.40;0.40;;;-3.50;1.40;;;-2.83;100.00;96598.30;647065;212;31905;-73
2022/02/27 02:28:03;;;;;;;1.00;0.60;;;-3.50;1.40;;;-2.86;100.00;96592.62;646712;216;31549;-75
2022/02/27 02:30:48;;;;;;;1.20;0.70;;;-3.60;1.40;;;-2.92;100.00;96591.88;646876;216;32123;-73
2022/02/27 02:35:54;;;;;;;4.55;0.95;;;-3.50;1.40;;;-3.02;100.00;96583.80;619516;226;32499;-77
2022/02/27 02:38:37;;;;;;;0.40;0.40;;;-3.70;1.40;;;-2.95;100.00;96587.22;646367;212;31781;-72
2022/02/27 02:41:28;;;;;;;1.50;0.62;;;-3.50;1.40;;;-2.97;100.00;96586.79;647272;216;31546;-77
2022/02/27 02:44:10;;;;;;;0.60;0.60;;;-3.60;1.40;;;-3.03;100.00;96584.08;648793;212;42144;-77
2022/02/27 02:46:57;;;;;;;1.90;0.90;;;-3.60;1.40;;;-3.11;100.00;96584.31;646800;216;31580;-75
2022/02/27 02:49:45;;;;;;;0.70;0.70;;;-3.70;1.40;;;-3.13;100.00;96582.07;621858;222;32009;-77
2022/02/27 02:52:27;;;;;;;3.03;0.77;;;-3.70;1.40;;;-3.14;100.00;96574.74;649142;212;31495;-77
2022/02/27 02:55:09;;;;;;;0.70;0.70;;;-3.70;1.40;;;-3.20;100.00;96570.28;620499;225;31963;-77
2022/02/27 02:57:56;;;;;;;0.70;0.70;;;-3.80;1.40;;;-3.22;100.00;96569.31;619048;226;31942;-72
2022/02/27 03:00:41;;;;;;;0.80;0.50;;;-3.80;1.40;;;-3.22;100.00;96567.91;645946;212;31729;-75
2022/02/27 03:03:23;;;;;;;0.50;0.43;;;-3.80;1.40;;;-3.20;100.00;96563.76;646580;212;31713;-72
2022/02/27 03:06:11;;;;;;;0.80;0.80;;;-3.80;1.40;;;-3.23;100.00;96562.05;645332;212;31672;-78
2022/02/27 03:08:58;;;;;;;1.05;0.90;;;-3.90;1.40;;;-3.27;100.00;96559.83;647820;216;31559;-72
2022/02/27 03:11:43;;;;;;;1.00;0.65;;;-3.80;1.40;;;-3.31;100.00;96564.73;646328;212;33161;-73
2022/02/27 03:14:25;;;;;;;1.20;0.90;;;-3.90;1.40;;;-3.31;100.00;96565.23;647177;216;31886;-72
2022/02/27 03:17:06;;;;;;;2.80;1.15;;;-4.00;1.40;;;-3.38;100.00;96569.73;646779;216;31497;-75
2022/02/27 03:19:55;;;;;;;1.00;0.90;;;-4.10;1.40;;;-3.43;100.00;96565.75;647808;216;31486;-76
2022/02/27 03:22:36;;;;;;;1.85;0.65;;;-4.20;1.40;;;-3.56;100.00;96565.65;646927;212;31604;-77
2022/02/27 03:27:55;;;;;;;3.53;0.85;;;-4.20;1.40;;;-3.73;100.00;96565.73;646352;216;31523;-75
2022/02/27 03:30:38;;;;;;;1.85;0.80;;;-4.20;1.40;;;-3.62;100.00;96570.98;646902;212;31742;-73
2022/02/27 03:35:55;;;;;;;1.08;0.70;;;-4.20;1.40;;;-3.86;100.00;96571.61;648778;216;31524;-77
2022/02/27 03:38:38;;;;;;;0.70;0.70;;;-4.30;1.40;;;-3.82;100.00;96571.69;647535;216;42355;-77
2022/02/27 03:41:20;;;;;;;2.20;1.90;;;-4.30;1.40;;;-3.68;100.00;96570.51;647987;216;31499;-78
2022/02/27 03:44:08;;;;;;;0.50;0.50;;;-4.20;1.40;;;-3.67;100.00;96567.94;647008;212;31598;-73
2022/02/27 03:46:50;;;;;;;0.85;0.60;;;-4.20;1.40;;;-3.79;100.00;96574.13;645967;212;31491;-72
2022/02/27 03:49:34;;;;;;;1.50;0.55;;;-4.40;1.40;;;-3.93;100.00;96576.09;646652;212;31770;-77
2022/02/27 03:52:21;;;;;;;0.75;0.70;;;-4.50;1.40;;;-3.99;100.00;96578.80;647336;212;31569;-75
2022/02/27 03:55:06;;;;;;;0.50;0.47;;;-4.60;1.40;;;-4.13;100.00;96578.27;642214;217;31504;-75
2022/02/27 03:57:48;;;;;;;0.40;0.40;;;-4.60;1.40;;;-4.20;100.00;96580.09;630622;217;32220;-75
2022/02/27 04:00:40;;;;;;;1.10;0.70;;;-4.60;1.40;;;-4.19;100.00;96577.25;619797;222;31840;-77
2022/02/27 04:06:02;;;;;;;0.50;0.50;;;-4.60;1.40;;;-4.21;100.00;96577.61;646548;216;42142;-75
2022/02/27 04:08:51;;;;;;;0.60;0.47;;;-4.60;1.40;;;-4.21;100.00;96572.97;646337;216;32179;-77
2022/02/27 04:11:34;;;;;;;0.50;0.50;;;-4.80;1.40;;;-4.30;100.00;96573.09;647038;216;31521;-73
2022/02/27 04:14:16;;;;;;;1.00;0.90;;;-4.70;1.40;;;-4.17;100.00;96568.73;619999;226;31991;-72
2022/02/27 04:19:35;;;;;;;0.90;0.40;;;-4.70;1.40;;;-4.20;100.00;96569.97;646191;216;31735;-75
2022/02/27 04:22:17;;;;;;;0.50;0.50;;;-4.90;1.40;;;-4.30;100.00;96565.54;646428;216;31588;-75
2022/02/27 04:25:01;;;;;;;1.48;0.85;;;-4.90;1.40;;;-4.00;100.00;96561.05;648000;216;31507;-77
2022/02/27 04:27:44;;;;;;;0.40;0.40;;;-4.50;1.40;;;-4.03;100.00;96555.63;620333;222;32045;-72
2022/02/27 04:30:33;;;;;;;0.60;0.40;;;-4.60;1.40;;;-4.21;100.00;96558.52;646648;216;31513;-78
2022/02/27 04:35:52;;;;;;;0.40;0.40;;;-4.90;1.40;;;-4.43;100.00;96565.20;647907;212;31567;-73
2022/02/27 04:38:34;;;;;;;0.60;0.60;;;-4.90;1.40;;;-4.50;100.00;96572.89;645755;212;31857;-72
2022/02/27 04:41:18;;;;;;;0.80;0.80;;;-4.90;1.40;;;-4.54;100.00;96569.86;645370;212;31496;-72
2022/02/27 04:43:58;;;;;;;0.50;0.50;;;-5.00;1.40;;;-4.60;100.00;96567.44;647079;216;31576;-74
2022/02/27 04:46:39;;;;;;;6.07;1.05;;;-5.10;1.40;;;-4.65;100.00;96567.25;646097;216;31774;-75
2022/02/27 04:49:21;;;;;;;1.65;0.62;;;-5.10;1.40;;;-4.61;100.00;96563.69;646800;216;42154;-75
2022/02/27 04:52:03;;;;;;;0.82;0.60;;;-5.10;1.40;;;-4.52;100.00;96558.80;646446;212;31534;-73
2022/02/27 04:54:48;;;;;;;0.80;0.75;;;-5.00;1.40;;;-4.48;100.00;96548.50;646077;216;42799;-72
2022/02/27 04:57:31;;;;;;;0.50;0.50;;;-4.80;1.40;;;-4.23;100.00;96558.47;646317;212;34074;-72
2022/02/27 05:00:12;;;;;;;0.82;0.65;;;-4.60;1.40;;;-4.28;100.00;96559.41;620538;226;42771;-72
2022/02/27 05:03:00;;;;;;;0.50;0.50;;;-4.80;1.40;;;-4.23;100.00;96561.71;620168;226;31876;-77
2022/02/27 05:05:44;;;;;;;0.80;0.52;;;-4.70;1.40;;;-4.30;100.00;96561.25;620328;222;32050;-72
2022/02/27 05:08:25;;;;;;;1.00;0.70;;;-4.80;1.40;;;-4.38;100.00;96555.66;646031;212;31886;-75
2022/02/27 05:11:10;;;;;;;1.62;0.62;;;-4.90;1.40;;;-4.33;100.00;96555.06;645564;212;31584;-73
2022/02/27 05:13:58;;;;;;;0.93;0.62;;;-4.90;1.40;;;-4.34;100.00;96555.61;647699;212;42247;-78
2022/02/27 05:16:42;;;;;;;2.20;0.70;;;-5.00;1.40;;;-4.47;100.00;96555.25;647089;216;32071;-72
2022/02/27 05:19:26;;;;;;;0.40;0.40;;;-5.00;1.40;;;-4.49;100.00;96560.23;645736;212;31570;-75
2022/02/27 05:22:08;;;;;;;0.70;0.70;;;-5.10;1.40;;;-4.64;100.00;96564.92;646838;212;31733;-73
2022/02/27 05:24:50;;;;;;;1.10;0.50;;;-5.10;1.40;;;-4.65;100.00;96565.70;646874;216;31530;-72
2022/02/27 05:27:34;;;;;;;0.60;0.50;;;-5.10;1.40;;;-4.73;100.00;96564.89;646809;216;31667;-74
2022/02/27 05:30:16;;;;;;;1.45;0.90;;;-5.10;1.40;;;-4.73;100.00;96568.52;646704;212;31529;-72
2022/02/27 05:32:58;;;;;;;2.05;0.80;;;-5.10;1.40;;;-4.71;100.00;96574.06;619845;222;31998;-75
2022/02/27 05:35:51;;;;;;;0.57;0.50;;;-5.20;1.40;;;-4.71;100.00;96571.84;647831;216;31548;-74
2022/02/27 05:38:33;;;;;;;0.80;0.62;;;-5.20;1.40;;;-4.74;100.00;96573.52;646182;212;42169;-74
2022/02/27 05:41:21;;;;;;;3.40;1.58;;;-5.20;1.40;;;-4.70;100.00;96579.34;646432;216;32007;-78
2022/02/27 05:44:04;;;;;;;1.20;1.10;;;-5.20;1.40;;;-4.73;100.00;96579.25;646453;216;31735;-75
2022/02/27 05:46:46;;;;;;;0.55;0.40;;;-5.20;1.40;;;-4.65;100.00;96583.47;647289;212;31764;-73
2022/02/27 05:49:28;;;;;;;1.00;0.50;;;-5.20;1.40;;;-4.73;100.00;96584.00;647153;216;31858;-73
2022/02/27 05:52:12;;;;;;;0.50;0.50;;;-5.20;1.40;;;-4.70;100.00;96585.47;647781;216;42657;-75
2022/02/27 05:54:54;;;;;;;0.70;0.70;;;-5.20;1.40;;;-4.79;100.00;96598.36;646744;216;31555;-74
2022/02/27 05:57:36;;;;;;;1.20;1.10;;;-5.10;1.40;;;-4.84;100.00;96596.40;645415;216;31893;-74
2022/02/27 06:00:17;;;;;;;0.57;0.57;;;-5.10;1.40;;;-4.81;100.00;96593.09;646365;212;31595;-75
2022/02/27 06:02:59;;;;;;;0.60;0.60;;;-5.30;1.40;;;-4.82;100.00;96598.08;647472;216;32309;-75
2022/02/27 06:05:41;;;;;;;0.70;0.60;;;-5.30;1.40;;;-4.72;100.00;96605.85;648177;212;31684;-74
2022/02/27 06:08:30;;;;;;;0.50;0.50;;;-5.30;1.40;;;-4.68;100.00;96596.52;648428;216;31528;-77
2022/02/27 06:11:13;;;;;;;2.10;0.85;;;-5.20;1.40;;;-4.67;100.00;96600.75;648154;212;42159;-72
2022/02/27 06:13:55;;;;;;;0.50;0.50;;;-5.20;1.40;;;-4.52;100.00;96605.06;645506;216;42160;-75
2022/02/27 06:16:37;;;;;;;0.90;0.90;;;-5.00;1.40;;;-4.43;100.00;96606.61;648072;216;42193;-73
2022/02/27 06:19:18;;;;;;;1.92;1.33;;;-4.90;1.40;;;-4.33;100.00;96605.33;648200;212;32506;-72
2022/02/27 06:22:03;;;;;;;0.93;0.68;;;-4.80;1.40;;;-4.24;100.00;96603.14;645900;216;42316;-74
2022/02/27 06:24:51;;;;;;;0.60;0.60;;;-4.70;1.40;;;-4.09;100.00;96607.16;647736;212;42110;-78
2022/02/27 06:27:42;;;;;;;0.70;0.70;;;-4.60;1.40;;;-3.91;100.00;96606.97;649250;216;42940;-75
2022/02/27 06:30:20;;;;;;;1.60;0.70;;;-4.30;1.40;;;-3.69;100.00;96608.78;646533;216;42809;-75
2022/02/27 06:35:51;;;;;;;0.50;0.50;;;-4.00;1.40;;;-3.54;100.00;96613.65;644252;212;31555;-73
2022/02/27 06:38:34;;;;;;;4.70;0.60;;;-4.10;1.40;;;-3.47;100.00;96618.45;644736;216;31553;-75
2022/02/27 06:41:15;;;;;;;0.60;0.50;;;-4.10;1.40;;;-3.38;100.00;96618.72;631111;221;31906;-75
2022/02/27 06:43:58;;;;;;;0.90;0.90;;;-3.90;1.40;;;-3.28;100.00;96621.06;619555;225;31909;-72
2022/02/27 06:46:40;;;;;;;0.70;0.50;;;-3.90;1.40;;;-3.05;100.00;96620.19;649325;212;31659;-74
2022/02/27 06:49:22;;;;;;;0.55;0.50;;;-3.50;1.40;;;-2.82;100.00;96623.36;647685;212;31566;-72
2022/02/27 06:52:10;;;;;;;1.20;0.90;;;-3.30;1.40;;;-2.48;100.00;96626.23;645932;216;31492;-78
2022/02/27 06:54:57;;;;;;;1.60;1.10;;;-2.90;1.40;;;-2.06;100.00;96628.47;643585;216;31507;-75
2022/02/27 06:57:43;;;;;;;0.50;0.50;;;-2.70;1.40;;;-1.85;100.00;96621.95;646602;212;31594;-75
2022/02/27 07:00:25;;;;;;;0.60;0.60;;;-2.60;1.40;;;-1.72;100.00;96627.80;646880;212;31592;-73
2022/02/27 07:03:06;;;;;;;2.20;1.60;;;-2.50;1.40;;;-1.61;100.00;96624.12;650508;212;31499;-72
2022/02/27 07:05:49;;;;;;;1.40;1.30;;;-2.40;1.40;;;-1.56;100.00;96624.83;645640;216;31543;-72
2022/02/27 07:08:30;;;;;;;2.30;0.85;;;-2.20;1.40;;;-1.55;100.00;96624.32;635925;212;31822;-75
2022/02/27 07:11:12;;;;;;;0.82;0.82;;;-2.10;1.40;;;-1.42;100.00;96626.34;647636;212;31595;-73
2022/02/27 07:13:54;;;;;;;1.55;0.93;;;-2.00;1.40;;;-1.28;100.00;96622.05;655245;216;31554;-72
2022/02/27 07:16:35;;;;;;;1.80;0.82;;;-2.00;1.40;;;-1.13;100.00;96627.55;645072;216;31917;-73
2022/02/27 07:19:17;;;;;;;1.20;1.10;;;-1.80;1.40;;;-0.98;100.00;96633.73;647877;216;42031;-74
2022/02/27 07:21:58;;;;;;;0.65;0.65;;;-1.70;1.40;;;-0.98;100.00;96641.91;654618;216;31531;-73
2022/02/27 07:24:40;;;;;;;1.42;1.33;;;-1.50;1.40;;;-1.05;100.00;96647.72;643265;216;31705;-74
2022/02/27 07:27:22;;;;;;;2.28;1.40;;;-1.40;1.40;;;-0.95;100.00;96648.23;650676;212;31519;-72
2022/02/27 07:30:05;;;;;;;1.30;1.20;;;-1.20;1.40;;;-0.69;100.00;96646.03;645518;216;31574;-75
2022/02/27 07:32:49;;;;;;;1.60;0.50;;;-1.10;1.40;;;-0.48;100.00;96649.45;648953;216;31762;-78
2022/02/27 07:35:51;;;;;;;1.95;1.60;;;-1.00;1.40;;;-0.38;100.00;96651.19;644960;216;31597;-73
2022/02/27 07:38:36;;;;;;;1.27;1.17;;;-0.80;1.40;;;-0.18;100.00;96659.28;650988;216;32072;-74
2022/02/27 07:41:18;;;;;;;6.07;1.40;;;-0.70;1.40;;;-0.07;100.00;96657.14;619475;226;32415;-73
2022/02/27 07:44:06;;;;;;;0.70;0.70;;;-0.50;1.40;;;0.13;100.00;96662.05;653925;216;31582;-78
2022/02/27 07:46:49;;;;;;;3.80;1.60;;;-0.50;1.40;;;0.37;100.00;96661.42;645222;212;31722;-78
2022/02/27 07:52:14;;;;;;;2.20;1.00;;;-0.50;1.40;;;0.38;100.00;96661.45;648055;212;42689;-75
2022/02/27 07:54:59;;;;;;;2.92;1.50;;;-0.70;1.40;;;0.42;100.00;96664.05;647727;212;31540;-75
2022/02/27 07:57:41;;;;;;;1.90;1.45;;;-0.60;1.40;;;0.56;100.00;96662.72;646937;216;31812;-73
2022/02/27 08:00:22;;;;;;;3.37;2.10;;;-0.30;1.40;;;0.83;100.00;96662.27;654456;212;31537;-73
2022/02/27 08:03:04;;;;;;;4.10;1.00;;;-0.10;1.40;;;1.06;100.00;96663.95;652596;216;31569;-72
2022/02/27 08:05:46;;;;;;;4.40;2.45;;;0.30;1.40;;;1.14;100.00;96657.48;649379;212;31567;-72
2022/02/27 08:11:02;;;;;;;1.50;1.40;;;1.20;1.40;;;1.60;100.00;96665.41;648411;216;31552;-73
2022/02/27 08:13:43;;;;;;;1.60;1.50;;;1.40;1.40;;;1.64;100.00;96666.93;645737;216;42467;-75
2022/02/27 08:16:28;;;;;;;3.85;2.03;;;1.40;1.40;;;1.86;100.00;96669.79;622695;226;31879;-73
2022/02/27 08:21:44;;;;;;;1.40;1.30;;;1.70;1.40;;;1.84;100.00;96663.48;647050;213;31532;-74
2022/02/27 08:24:26;;;;;;;2.00;1.50;;;1.70;1.40;;;2.12;100.00;96663.93;654125;212;31588;-73
2022/02/27 08:27:08;;;;;;;2.20;2.00;;;1.90;1.40;;;2.36;100.00;96667.66;645601;216;31549;-73
2022/02/27 08:29:49;;;;;;;3.83;1.87;;;2.10;1.40;;;2.20;100.00;96661.44;643164;219;31564;-75
2022/02/27 08:32:31;;;;;;;3.20;1.95;;;1.90;1.40;;;2.31;100.00;96670.13;646701;216;31652;-72
2022/02/27 08:35:51;;;;;;;1.60;1.50;;;2.00;1.40;;;2.15;100.00;96670.58;618998;226;31966;-75
2022/02/27 08:38:35;;;;;;;2.60;2.40;;;2.00;1.40;;;2.58;100.00;96665.70;646035;216;31546;-73
2022/02/27 08:41:17;;;;;;;1.20;1.10;;;2.30;1.40;;;2.80;100.00;96664.09;647979;216;31560;-74
2022/02/27 08:44:03;;;;;;;1.90;1.70;;;2.50;1.40;;;2.76;100.00;96667.38;653563;212;31747;-78
2022/02/27 08:46:47;;;;;;;1.87;1.75;;;2.50;1.40;;;2.83;100.00;96666.62;647154;216;31582;-75
2022/02/27 08:49:29;;;;;;;2.30;2.10;;;2.50;1.40;;;2.89;100.00;96669.69;646924;216;31583;-75
2022/02/27 08:54:46;;;;;;;3.83;2.08;;;2.90;1.40;;;3.21;100.00;96666.33;651594;212;31922;-74
2022/02/27 08:57:27;;;;;;;1.83;1.70;;;3.00;1.40;;;3.57;100.00;96665.59;652081;216;31576;-74
2022/02/27 09:00:09;;;;;;;2.22;1.95;;;3.30;1.40;;;3.50;100.00;96665.98;645040;216;31534;-74
2022/02/27 09:02:51;;;;;;;2.90;2.10;;;3.40;1.40;;;4.17;100.00;96658.82;643117;212;31590;-75
2022/02/27 09:05:37;;;;;;;3.87;2.05;;;3.80;1.40;;;4.22;100.00;96662.06;648706;216;31526;-77
2022/02/27 09:08:25;;;;;;;4.90;1.83;;;4.00;1.40;;;4.17;100.00;96666.83;637507;212;32868;-75
2022/02/27 09:11:07;;;;;;;2.50;2.28;;;4.10;1.40;;;5.30;100.00;96661.47;651266;212;32114;-75
2022/02/27 09:13:52;;;;;;;1.92;1.70;;;5.70;1.40;;;5.76;95.09;96659.15;647137;215;32483;-73
2022/02/27 09:16:36;;;;;;;2.22;1.20;;;5.20;1.40;;;6.64;93.81;96658.13;650235;216;31536;-78
2022/02/27 09:19:24;;;;;;;2.42;1.80;;;8.30;1.40;;;7.27;82.62;96653.71;650291;216;31554;-75
2022/02/27 09:22:06;;;;;;;4.30;1.80;;;7.20;1.40;;;7.90;80.80;96654.37;648906;212;31554;-76
2022/02/27 09:24:48;;;;;;;3.62;1.58;;;6.60;1.40;;;6.94;81.23;96653.34;647738;216;31572;-74
2022/02/27 09:27:29;;;;;;;2.30;1.60;;;6.00;1.40;;;7.21;82.09;96648.06;621805;226;31883;-73
2022/02/27 09:30:14;;;;;;;2.30;1.63;;;7.10;1.40;;;5.41;81.94;96650.98;644374;216;31564;-74
2022/02/27 09:32:55;;;;;;;1.77;1.40;;;4.60;1.40;;;4.37;83.27;96659.89;646244;216;31555;-75
2022/02/27 09:35:56;;;;;;;2.10;1.50;;;4.30;1.40;;;6.49;83.39;96656.52;616091;224;31918;-77
2022/02/27 09:38:41;;;;;;;2.80;1.50;;;6.70;1.40;;;7.41;71.23;96651.64;645940;216;31562;-72
2022/02/27 09:41:24;;;;;;;3.00;2.00;;;8.20;1.40;;;6.16;67.94;96651.60;649119;216;32122;-74
2022/02/27 09:44:08;;;;;;;1.50;1.27;;;4.80;1.40;;;7.60;66.29;96646.08;651597;212;31890;-73
2022/02/27 09:46:51;;;;;;;3.53;1.50;;;7.70;1.40;;;7.05;62.37;96648.29;623936;226;31986;-76
2022/02/27 09:49:38;;;;;;;2.47;1.20;;;7.40;1.40;;;8.49;62.98;96643.17;647696;216;31633;-74
2022/02/27 09:54:54;;;;;;;2.00;1.80;;;11.50;1.40;;;12.18;54.35;96633.61;648681;212;39646;-73
2022/02/27 09:57:36;;;;;;;2.28;2.08;;;10.00;1.40;;;13.10;52.69;96632.98;650501;216;31548;-73
2022/02/27 10:00:20;;;;;;;1.92;1.15;;;10.10;1.40;;;8.09;52.05;96645.38;649521;212;37923;-76
2022/02/27 10:05:43;;;;;;;2.67;1.50;;;5.90;1.40;;;8.13;53.10;96639.14;649148;216;31555;-76
2022/02/27 10:08:27;;;;;;;2.87;1.40;;;7.50;1.40;;;7.04;54.65;96647.69;635606;216;31728;-74
2022/02/27 10:11:16;;;;;;;3.00;1.40;;;5.00;1.40;;;7.77;56.36;96638.97;619140;222;44358;-76
2022/02/27 10:13:58;;;;;;;1.95;1.70;;;6.10;1.40;;;7.78;57.01;96637.89;654167;212;31536;-73
2022/02/27 10:16:40;;;;;;;1.70;1.50;;;6.00;1.40;;;7.95;57.38;96636.70;654175;216;31530;-74
2022/02/27 10:19:22;;;;;;;2.07;1.50;;;6.20;1.40;;;6.22;58.36;96646.84;652546;212;31749;-74
2022/02/27 10:22:09;;;;;;;1.37;1.20;;;5.40;1.40;;;7.24;58.70;96640.00;650397;216;31523;-76
2022/02/27 10:24:57;;;;;;;2.30;1.63;;;5.60;1.40;;;6.86;58.08;96640.60;618539;225;31886;-73
2022/02/27 10:27:44;;;;;;;2.10;1.50;;;5.30;1.40;;;6.35;59.49;96639.77;648712;216;31531;-73
2022/02/27 10:30:29;;;;;;;2.60;1.30;;;5.70;1.40;;;5.62;58.97;96635.45;645119;216;31522;-75
2022/02/27 10:38:43;;;;;;;2.43;1.40;;;11.90;1.40;;;12.41;44.08;96611.72;651947;212;31538;-74
2022/02/27 10:41:21;;;;;;;2.37;1.85;;;11.20;1.40;;;12.35;45.57;96611.40;646277;216;31606;-75
2022/02/27 10:44:09;;;;;;;2.17;1.40;;;11.30;1.40;;;11.63;44.58;96617.80;650435;216;31523;-76
2022/02/27 10:47:23;;;;;;;2.58;1.83;;;8.70;1.40;;;10.21;47.10;96615.02;625137;222;31925;-73
2022/02/27 10:50:08;;;;;;;2.90;1.92;;;6.90;1.40;;;8.03;53.35;96613.67;618228;226;32663;-73
2022/02/27 10:52:50;;;;;;;2.75;2.00;;;6.50;1.40;;;11.16;48.84;96602.17;646775;212;32214;-74
2022/02/27 10:55:38;;;;;;;2.40;2.20;;;9.50;1.40;;;11.38;48.03;96606.69;623718;226;31854;-78
2022/02/27 10:58:25;;;;;;;2.65;2.20;;;8.90;1.40;;;11.16;50.53;96605.20;649457;216;42730;-74
2022/02/27 11:01:26;;;;;;;2.10;1.90;;;11.30;1.40;;;14.02;44.29;96586.25;625669;222;32074;-76
2022/02/27 11:04:08;;;;;;;2.35;2.15;;;13.60;1.40;;;15.79;40.24;96588.20;645635;216;31794;-75
2022/02/27 11:06:53;;;;;;;2.50;2.30;;;14.10;1.40;;;17.46;39.42;96581.97;644149;212;31701;-76
2022/02/27 11:09:35;;;;;;;3.00;2.50;;;15.10;1.40;;;14.34;35.84;96601.23;624661;221;31901;-76
2022/02/27 11:12:17;;;;;;;3.37;2.00;;;10.90;1.40;;;14.40;37.60;96599.38;652484;216;31727;-77
2022/02/27 11:15:05;;;;;;;4.40;2.40;;;9.90;1.40;;;8.77;43.96;96603.20;644764;216;31799;-73
2022/02/27 11:17:47;;;;;;;2.00;1.80;;;7.80;1.40;;;10.67;45.38;96596.50;646546;216;31553;-74
2022/02/27 11:20:35;;;;;;;2.65;1.85;;;9.30;1.40;;;11.45;42.89;96593.23;648115;212;31668;-76
2022/02/27 11:23:18;;;;;;;2.33;2.12;;;10.80;1.40;;;11.62;41.81;96601.66;645835;216;31528;-73
2022/02/27 11:26:01;;;;;;;2.12;1.90;;;8.20;1.40;;;10.29;44.07;96599.16;646137;216;32152;-75
2022/02/27 11:28:44;;;;;;;3.28;2.03;;;9.90;1.40;;;11.92;44.44;96587.55;648353;216;31689;-74
2022/02/27 11:31:26;;;;;;;3.47;2.30;;;9.20;1.40;;;11.46;42.69;96593.76;619705;226;31834;-74
2022/02/27 11:35:57;;;;;;;3.85;2.60;;;6.50;1.40;;;7.41;51.94;96586.14;648471;212;31554;-75
2022/02/27 11:38:39;;;;;;;3.70;1.90;;;8.30;1.40;;;11.44;41.95;96576.29;648162;212;35465;-73
2022/02/27 11:41:22;;;;;;;3.60;1.70;;;9.30;1.40;;;9.17;45.42;96581.68;647437;216;42210;-73
2022/02/27 11:44:02;;;;;;;2.50;1.90;;;7.50;1.40;;;8.54;46.20;96575.63;647097;216;42291;-73
2022/02/27 11:46:50;;;;;;;2.67;2.08;;;7.50;1.40;;;10.99;43.80;96570.09;655120;212;39501;-76
2022/02/27 11:49:32;;;;;;;2.40;2.10;;;9.00;1.40;;;11.11;44.30;96568.67;646417;216;31665;-74
2022/02/27 11:52:20;;;;;;;3.37;2.25;;;9.50;1.40;;;13.15;38.96;96559.19;650182;212;42244;-73
2022/02/27 11:55:02;;;;;;;2.55;1.92;;;11.40;1.40;;;10.96;41.07;96565.37;634268;221;32034;-73
2022/02/27 11:57:49;;;;;;;2.15;1.55;;;9.90;1.40;;;14.57;37.66;96554.41;628845;222;31884;-76
2022/02/27 12:00:37;;;;;;;2.60;2.20;;;11.10;1.40;;;13.56;42.69;96559.27;641405;213;31566;-75
2022/02/27 12:03:40;;;;;;;3.65;2.40;;;12.50;1.40;;;17.11;35.44;96548.27;645965;216;31597;-75
2022/02/27 12:06:20;;;;;;;2.42;2.22;;;11.50;1.40;;;12.07;38.59;96557.30;645546;216;31800;-75
2022/02/27 12:09:12;;;;;;;2.35;2.10;;;10.20;1.40;;;11.67;39.24;96553.66;647042;216;31691;-73
2022/02/27 12:12:00;;;;;;;2.33;1.83;;;10.60;1.40;;;14.78;39.54;96547.73;623477;222;32027;-72
2022/02/27 12:14:42;;;;;;;2.30;1.67;;;14.20;1.40;;;17.86;34.01;96533.11;648521;216;31520;-73
2022/02/27 12:17:41;;;;;;;3.25;2.20;;;14.80;1.40;;;17.26;33.39;96528.42;650821;216;31516;-71
2022/02/27 12:20:59;;;;;;;2.35;1.70;;;14.70;1.40;;;15.92;32.53;96532.59;652338;212;31558;-72
2022/02/27 12:23:47;;;;;;;3.03;2.20;;;13.50;1.40;;;15.15;32.44;96525.98;649455;216;31511;-72